Wimberley, TX (78676)

4:02 AM CDT on October 31, 2014 (GMT -0500)
Big Dog at Ledgerock | Change Station
CLOSE
Current Station
Personal Weather Station
Location: Wimberley, TX
Elevation: 1175 ft
Nearby Weather Stations

Elev 1175 ft 30.04 °N, 98.17 °W | Updated 2 minutes ago

Overcast
Overcast
62.8 °F
Feels Like 62.8 °F
N
2.0
Wind Variable Wind from North
Gusts 0.0 mph

Today
High -- | Low -- °F
--% Chance of Precip.
Yesterday
High -- | Low -- °F
Precip. -- in
7:45 AM 6:46 PM
First Quarter, 53% visible
Pressure 30.17 in
Visibility 10.0 miles
Clouds Mostly Cloudy 4600 ft
Overcast 5000 ft
Dew Point 62 °F
Humidity 96%
Rainfall 0.36 in
Snow Depth Not available.
UV 0.0 out of 12
Pollen 5.10 out of 12
Air Quality Not available.
Flu Activity Not available.
METAR KHYI 310855Z 02012KT 10SM BKN046 OVC050 18/14 A3017 RMK AO1 LTG DSNT SW 52014

More Conditions Fewer Conditions

Pressure 30.17 in
Visibility 10.0 miles
Clouds Mostly Cloudy 4600 ft
Overcast 5000 ft
Dew Point 62 °F
Humidity 96%
Rainfall 0.36 in
Snow Depth Not available.
UV 0.0 out of 12
Pollen 5.10 out of 12
Air Quality Not available.
Flu Activity Not available.
METAR KHYI 310855Z 02012KT 10SM BKN046 OVC050 18/14 A3017 RMK AO1 LTG DSNT SW 52014

More Conditions Fewer Conditions

Nowcast | as of 3:06 am CDT on October 31, 2014

Through 4 am...scattered showers and isolated thunderstorms will move south at 20 mph across The Hill Country and south central Texas. The heaviest storms and greatest areal coverage will be from Floresville and Stockdale to across the San Antonio area to Fredericksburg...Mountain Home and Hondo areas. Rainfall amounts will average one half inch or less with isolated amounts up to 2 inches.

×

10-Day Weather Forecast

Almanac

Astronomy

Oct. 31, 2014 Rise Set
Actual Time
Civil Twilight
Nautical Twilight
Astronomical Twilight
Moon
Length of Visible Light
Length of Day
Tomorrow will be .
, % of the Moon is Illuminated

Today's Extremes

State Highs State Lows

Community

WunderPhotos

Upload Photos

1,766,573 photos uploaded!

WunderBlogs® & News

Nearby

Air Quality

  Air Quality AQ Index Pollutant
Not available.

Snow Depth

Station Depth Elevation

Earthquake Activity

City Distance Mag. Time & Date
Minimum magnitude displayed is 2.5.

Coastal Water Temperatures

Place Temperature

Nearby Weather Stations